Time;durP1;ratioP1;P1;durP2;ratioP2;P2;SDS_P1;SDS_P2;PMS_P1;PMS_P2;Temp;Humidity;BMP_temperature;BMP_pressure;BME280_temperature;BME280_humidity;BME280_pressure;Samples;Min_cycle;Max_cycle;Signal;HPM_P1;HPM_P2
2023/08/24 00:01:48;;;;;;;3.60;2.20;;;;;;;;;;5149823;27;20053;-72
2023/08/24 00:04:15;;;;;;;5.50;1.90;;;;;;;;;;5151093;27;20046;-72
2023/08/24 00:06:42;;;;;;;3.70;2.35;;;;;;;;;;5150956;27;20047;-72
2023/08/24 00:09:08;;;;;;;5.18;2.40;;;;;;;;;;5149997;27;20518;-72
2023/08/24 00:11:35;;;;;;;4.68;2.20;;;;;;;;;;5150557;27;20379;-72
2023/08/24 00:14:02;;;;;;;3.53;2.22;;;;;;;;;;5150205;27;20607;-72
2023/08/24 00:16:29;;;;;;;4.13;2.10;;;;;;;;;;5150459;27;20046;-72
2023/08/24 00:18:55;;;;;;;4.90;2.50;;;;;;;;;;5150343;27;20042;-72
2023/08/24 00:21:22;;;;;;;4.80;2.30;;;;;;;;;;5150553;27;20271;-72
2023/08/24 00:23:50;;;;;;;3.50;2.22;;;;;;;;;;5149799;27;20050;-72
2023/08/24 00:26:17;;;;;;;2.45;1.90;;;;;;;;;;5150545;27;20050;-72
2023/08/24 00:28:45;;;;;;;4.53;2.50;;;;;;;;;;5150011;27;20463;-72
2023/08/24 00:31:14;;;;;;;2.70;2.30;;;;;;;;;;5150504;27;20042;-72
2023/08/24 00:33:41;;;;;;;4.63;2.43;;;;;;;;;;5149799;27;20062;-72
2023/08/24 00:36:08;;;;;;;3.55;2.45;;;;;;;;;;5150358;27;20054;-72
2023/08/24 00:38:35;;;;;;;6.07;3.10;;;;;;;;;;5149688;27;20039;-72
2023/08/24 00:41:02;;;;;;;4.70;2.53;;;;;;;;;;5150528;27;20047;-72
2023/08/24 00:43:29;;;;;;;3.58;2.30;;;;;;;;;;5149084;27;20074;-72
2023/08/24 00:45:59;;;;;;;3.60;2.22;;;;;;;;;;5150447;27;20051;-72
2023/08/24 00:48:28;;;;;;;4.55;2.55;;;;;;;;;;5150493;27;20050;-72
2023/08/24 00:51:01;;;;;;;3.92;2.80;;;;;;;;;;5150278;27;20444;-73
2023/08/24 00:53:29;;;;;;;4.82;2.55;;;;;;;;;;5149662;27;20054;-72
2023/08/24 00:55:57;;;;;;;4.15;2.80;;;;;;;;;;5149916;27;20099;-72
2023/08/24 00:58:24;;;;;;;4.00;2.72;;;;;;;;;;5149873;27;20050;-72
2023/08/24 01:00:54;;;;;;;3.35;2.10;;;;;;;;;;5150419;27;20047;-72
2023/08/24 01:03:23;;;;;;;9.98;2.90;;;;;;;;;;5150461;27;20047;-72
2023/08/24 01:05:51;;;;;;;5.38;2.30;;;;;;;;;;5149789;27;20050;-72
2023/08/24 01:08:20;;;;;;;3.28;2.38;;;;;;;;;;5149477;27;20047;-72
2023/08/24 01:11:16;;;;;;;3.22;2.33;;;;;;;;;;5149802;27;20503;-72
2023/08/24 01:14:25;;;;;;;5.53;2.30;;;;;;;;;;5114288;27;20490;-72
2023/08/24 01:16:56;;;;;;;4.50;2.42;;;;;;;;;;5118756;27;20050;-72
2023/08/24 01:19:44;;;;;;;3.50;2.60;;;;;;;;;;5153183;27;20071;-72
2023/08/24 01:22:19;;;;;;;5.50;2.90;;;;;;;;;;5153829;27;20047;-72
2023/08/24 01:25:00;;;;;;;5.32;2.85;;;;;;;;;;5153308;27;20126;-72
2023/08/24 01:27:29;;;;;;;4.72;2.92;;;;;;;;;;5138923;27;20476;-72
2023/08/24 01:29:56;;;;;;;5.63;2.63;;;;;;;;;;5132323;27;20039;-72
2023/08/24 01:32:23;;;;;;;4.05;2.67;;;;;;;;;;5132392;27;20057;-72
2023/08/24 01:34:50;;;;;;;7.50;3.13;;;;;;;;;;5132570;27;20197;-72
2023/08/24 01:37:17;;;;;;;3.42;2.53;;;;;;;;;;5133049;27;20122;-72
2023/08/24 01:40:09;;;;;;;7.97;3.17;;;;;;;;;;5132064;27;20047;-72
2023/08/24 01:42:48;;;;;;;4.22;2.67;;;;;;;;;;5132896;27;20074;-72
2023/08/24 01:45:18;;;;;;;3.90;2.80;;;;;;;;;;5132241;27;20058;-72
2023/08/24 01:47:48;;;;;;;;;;;;;;;;;;5132964;27;20043;-72
2023/08/24 01:50:16;;;;;;;5.60;2.80;;;;;;;;;;5132134;27;19923;-72
2023/08/24 01:52:42;;;;;;;5.28;2.80;;;;;;;;;;5131865;27;20047;-72
2023/08/24 01:55:11;;;;;;;3.92;2.53;;;;;;;;;;5132403;27;20044;-72
2023/08/24 01:57:38;;;;;;;4.68;2.70;;;;;;;;;;5132750;27;20039;-72
2023/08/24 02:00:09;;;;;;;3.50;2.50;;;;;;;;;;5131704;27;20043;-72
2023/08/24 02:02:36;;;;;;;5.18;2.65;;;;;;;;;;5132282;27;20047;-73
2023/08/24 02:05:03;;;;;;;5.03;2.47;;;;;;;;;;5131821;27;20047;-72
2023/08/24 02:07:30;;;;;;;4.63;2.67;;;;;;;;;;5131510;27;20624;-72
2023/08/24 02:09:57;;;;;;;5.82;2.60;;;;;;;;;;5131765;27;20046;-72
2023/08/24 02:12:23;;;;;;;4.03;2.70;;;;;;;;;;5132112;27;20043;-72
2023/08/24 02:14:50;;;;;;;5.32;3.08;;;;;;;;;;5131763;27;20055;-72
2023/08/24 02:17:16;;;;;;;5.15;2.60;;;;;;;;;;5132291;27;20087;-72
2023/08/24 02:19:43;;;;;;;4.28;2.70;;;;;;;;;;5131387;27;20043;-72
2023/08/24 02:22:10;;;;;;;4.65;2.92;;;;;;;;;;5131628;27;20494;-72
2023/08/24 02:24:36;;;;;;;3.30;2.20;;;;;;;;;;5130426;27;20043;-72
2023/08/24 02:27:03;;;;;;;4.57;2.65;;;;;;;;;;5131632;27;20043;-72
2023/08/24 02:29:30;;;;;;;5.35;2.90;;;;;;;;;;5131398;27;20747;-72
2023/08/24 02:31:56;;;;;;;3.80;2.40;;;;;;;;;;5131628;27;20043;-72
2023/08/24 02:34:23;;;;;;;5.35;2.90;;;;;;;;;;5131761;27;20058;-72
2023/08/24 02:36:50;;;;;;;4.60;2.78;;;;;;;;;;5131576;27;20475;-72
2023/08/24 02:39:16;;;;;;;6.72;2.65;;;;;;;;;;5130866;27;20047;-72
2023/08/24 02:41:43;;;;;;;5.32;2.78;;;;;;;;;;5131183;27;20043;-72
2023/08/24 02:44:10;;;;;;;6.00;2.72;;;;;;;;;;5131252;27;20619;-72
2023/08/24 02:46:36;;;;;;;5.95;2.97;;;;;;;;;;5131124;27;20527;-72
2023/08/24 02:49:03;;;;;;;4.13;2.83;;;;;;;;;;5131094;27;20047;-72
2023/08/24 02:51:31;;;;;;;3.80;2.70;;;;;;;;;;5131059;27;20059;-72
2023/08/24 02:53:57;;;;;;;4.18;2.70;;;;;;;;;;5130508;27;20047;-72
2023/08/24 02:56:24;;;;;;;5.78;2.80;;;;;;;;;;5130892;27;20054;-72
2023/08/24 02:58:51;;;;;;;3.60;2.40;;;;;;;;;;5130933;27;20465;-72
2023/08/24 03:01:18;;;;;;;4.55;2.53;;;;;;;;;;5130494;27;20408;-72
2023/08/24 03:03:44;;;;;;;4.75;2.60;;;;;;;;;;5131022;27;20043;-72
2023/08/24 03:06:11;;;;;;;5.10;2.60;;;;;;;;;;5130848;27;20047;-72
2023/08/24 03:08:38;;;;;;;5.05;2.80;;;;;;;;;;5130892;27;20047;-72
2023/08/24 03:11:04;;;;;;;5.45;2.80;;;;;;;;;;5130854;27;20070;-72
2023/08/24 03:13:32;;;;;;;5.05;2.60;;;;;;;;;;5130599;27;20617;-72
2023/08/24 03:16:03;;;;;;;6.22;2.70;;;;;;;;;;5129455;27;20057;-72
2023/08/24 03:18:30;;;;;;;3.50;2.50;;;;;;;;;;5130649;27;20490;-72
2023/08/24 03:20:57;;;;;;;11.43;2.55;;;;;;;;;;5130267;27;20054;-72
2023/08/24 03:23:24;;;;;;;4.97;2.78;;;;;;;;;;5130067;27;20039;-72
2023/08/24 03:25:51;;;;;;;4.18;2.80;;;;;;;;;;5130479;27;20051;-72
2023/08/24 03:28:18;;;;;;;6.20;2.80;;;;;;;;;;5129295;27;20514;-72
2023/08/24 03:30:50;;;;;;;3.10;2.40;;;;;;;;;;5130022;27;20043;-72
2023/08/24 03:33:16;;;;;;;4.95;2.92;;;;;;;;;;5130187;27;20047;-72
2023/08/24 03:35:43;;;;;;;5.18;2.53;;;;;;;;;;5129927;27;20631;-72
2023/08/24 03:38:10;;;;;;;4.70;2.70;;;;;;;;;;5128779;27;20438;-72
2023/08/24 03:40:37;;;;;;;5.32;2.75;;;;;;;;;;5130356;27;20043;-72
2023/08/24 03:43:04;;;;;;;4.20;2.53;;;;;;;;;;5130288;27;20070;-72
2023/08/24 03:45:31;;;;;;;3.63;2.42;;;;;;;;;;5130678;27;20047;-72
2023/08/24 03:47:57;;;;;;;7.55;2.70;;;;;;;;;;5130267;27;20530;-72
2023/08/24 03:50:25;;;;;;;4.80;2.58;;;;;;;;;;5130152;27;20347;-72
2023/08/24 03:52:52;;;;;;;4.82;2.58;;;;;;;;;;5130058;27;20100;-72
2023/08/24 03:55:18;;;;;;;4.05;2.70;;;;;;;;;;5130193;27;20077;-72
2023/08/24 03:57:45;;;;;;;5.72;2.80;;;;;;;;;;5130098;27;20193;-72
2023/08/24 04:00:14;;;;;;;6.05;2.67;;;;;;;;;;5129987;27;20633;-72
2023/08/24 04:02:44;;;;;;;6.55;2.65;;;;;;;;;;5129661;27;20046;-72
2023/08/24 04:05:11;;;;;;;8.00;2.83;;;;;;;;;;5130373;27;20055;-73
2023/08/24 04:07:39;;;;;;;4.88;2.83;;;;;;;;;;5129426;27;20043;-72
2023/08/24 04:10:06;;;;;;;4.70;2.50;;;;;;;;;;5129737;27;20051;-72
2023/08/24 04:12:33;;;;;;;5.32;2.65;;;;;;;;;;5129619;27;20050;-72
2023/08/24 04:15:00;;;;;;;4.13;2.70;;;;;;;;;;5129921;27;20094;-72
2023/08/24 04:17:26;;;;;;;5.25;2.75;;;;;;;;;;5129882;27;20048;-72
2023/08/24 04:19:53;;;;;;;4.78;2.50;;;;;;;;;;5129974;28;20051;-72
2023/08/24 04:22:19;;;;;;;4.70;2.75;;;;;;;;;;5129568;27;20538;-72
2023/08/24 04:24:46;;;;;;;3.88;2.42;;;;;;;;;;5129907;27;20049;-72
2023/08/24 04:27:13;;;;;;;4.65;2.70;;;;;;;;;;5129242;28;20551;-72
2023/08/24 04:29:39;;;;;;;7.50;2.55;;;;;;;;;;5129425;27;20439;-72
2023/08/24 04:32:06;;;;;;;8.43;2.60;;;;;;;;;;5129498;27;20050;-72
2023/08/24 04:34:33;;;;;;;7.75;3.15;;;;;;;;;;5129692;28;20414;-72
2023/08/24 04:37:01;;;;;;;5.18;2.95;;;;;;;;;;5129434;27;20507;-73
2023/08/24 04:39:29;;;;;;;3.90;2.65;;;;;;;;;;5129629;28;20124;-72
2023/08/24 04:41:56;;;;;;;5.03;2.70;;;;;;;;;;5129008;27;20399;-72
2023/08/24 04:44:24;;;;;;;4.25;2.67;;;;;;;;;;5129280;27;20047;-73
2023/08/24 04:46:50;;;;;;;5.70;2.72;;;;;;;;;;5129439;27;20050;-72
2023/08/24 04:49:17;;;;;;;5.40;2.58;;;;;;;;;;5132514;27;20043;-72
2023/08/24 04:51:44;;;;;;;4.47;2.40;;;;;;;;;;5132106;27;20085;-72
2023/08/24 04:54:10;;;;;;;5.57;2.85;;;;;;;;;;5133551;27;20054;-72
2023/08/24 04:56:37;;;;;;;7.40;2.63;;;;;;;;;;5133428;27;20050;-72
2023/08/24 04:59:04;;;;;;;3.75;2.30;;;;;;;;;;5133911;27;20043;-73
2023/08/24 05:01:33;;;;;;;4.93;2.70;;;;;;;;;;5133076;27;20419;-73
2023/08/24 05:04:00;;;;;;;6.50;2.72;;;;;;;;;;5133112;27;20491;-72
2023/08/24 05:06:27;;;;;;;4.75;2.58;;;;;;;;;;5133297;27;20043;-72
2023/08/24 05:08:54;;;;;;;6.20;3.00;;;;;;;;;;5132912;27;20735;-73
2023/08/24 05:11:26;;;;;;;7.75;2.88;;;;;;;;;;5133219;27;20043;-73
2023/08/24 05:13:53;;;;;;;4.22;2.80;;;;;;;;;;5132849;27;20058;-73
2023/08/24 05:16:19;;;;;;;4.88;2.78;;;;;;;;;;5133218;27;20043;-73
2023/08/24 05:18:46;;;;;;;4.15;2.42;;;;;;;;;;5132883;27;20054;-73
2023/08/24 05:21:13;;;;;;;7.45;3.13;;;;;;;;;;5132733;27;20047;-73
2023/08/24 05:23:40;;;;;;;6.25;3.00;;;;;;;;;;5132288;27;20039;-73
2023/08/24 05:26:07;;;;;;;5.63;3.30;;;;;;;;;;5132930;27;20043;-73
2023/08/24 05:28:33;;;;;;;5.45;2.83;;;;;;;;;;5132672;27;20043;-73
2023/08/24 05:31:00;;;;;;;5.30;2.63;;;;;;;;;;5131666;27;20039;-73
2023/08/24 05:33:27;;;;;;;6.88;3.20;;;;;;;;;;5132578;27;20051;-72
2023/08/24 05:35:54;;;;;;;6.05;3.15;;;;;;;;;;5132722;27;20131;-72
2023/08/24 05:38:20;;;;;;;8.95;2.90;;;;;;;;;;5131834;27;20050;-72
2023/08/24 05:40:48;;;;;;;6.55;2.95;;;;;;;;;;5132384;27;20547;-73
2023/08/24 05:43:15;;;;;;;4.65;2.90;;;;;;;;;;5132244;27;20414;-73
2023/08/24 05:45:44;;;;;;;6.18;2.60;;;;;;;;;;5132737;27;20054;-73
2023/08/24 05:48:11;;;;;;;5.75;2.90;;;;;;;;;;5132385;27;20107;-73
2023/08/24 05:50:48;;;;;;;4.80;2.90;;;;;;;;;;5132239;27;20510;-73
2023/08/24 05:53:14;;;;;;;8.48;2.55;;;;;;;;;;5131782;27;20502;-73
2023/08/24 05:55:41;;;;;;;3.88;2.70;;;;;;;;;;5132095;27;20051;-72
2023/08/24 05:58:08;;;;;;;5.53;2.90;;;;;;;;;;5132223;27;20047;-73
2023/08/24 06:00:35;;;;;;;3.75;2.60;;;;;;;;;;5130832;27;20525;-73
2023/08/24 06:03:02;;;;;;;6.03;2.70;;;;;;;;;;5131939;27;20039;-73
2023/08/24 06:05:31;;;;;;;6.53;3.15;;;;;;;;;;5132641;27;20562;-73
2023/08/24 06:07:58;;;;;;;7.60;2.97;;;;;;;;;;5131828;27;20051;-72
2023/08/24 06:10:26;;;;;;;5.32;2.90;;;;;;;;;;5132067;27;20064;-72
2023/08/24 06:12:53;;;;;;;8.23;2.70;;;;;;;;;;5131856;27;20615;-72
2023/08/24 06:15:23;;;;;;;4.57;2.80;;;;;;;;;;5131529;27;20050;-73
2023/08/24 06:17:50;;;;;;;5.70;2.83;;;;;;;;;;5131729;27;20047;-72
2023/08/24 06:20:20;;;;;;;5.85;2.97;;;;;;;;;;5131794;27;20055;-73
2023/08/24 06:22:46;;;;;;;6.68;2.95;;;;;;;;;;5131384;27;20088;-73
2023/08/24 06:25:13;;;;;;;8.05;3.33;;;;;;;;;;5132080;27;20047;-73
2023/08/24 06:27:40;;;;;;;5.75;3.15;;;;;;;;;;5131329;27;20575;-73
2023/08/24 06:30:07;;;;;;;5.40;2.95;;;;;;;;;;5131701;27;20051;-73
2023/08/24 06:32:34;;;;;;;4.70;3.10;;;;;;;;;;5131028;27;20082;-73
2023/08/24 06:35:01;;;;;;;5.05;2.97;;;;;;;;;;5131453;27;20043;-72
2023/08/24 06:37:27;;;;;;;6.22;2.72;;;;;;;;;;5131102;27;20043;-73
2023/08/24 06:39:54;;;;;;;7.85;3.00;;;;;;;;;;5131408;27;20092;-73
2023/08/24 06:42:21;;;;;;;7.63;2.78;;;;;;;;;;5131366;27;20050;-72
2023/08/24 06:44:49;;;;;;;6.03;3.10;;;;;;;;;;5131505;27;20200;-72
2023/08/24 06:47:16;;;;;;;5.78;2.70;;;;;;;;;;5131480;27;20130;-73
2023/08/24 06:49:43;;;;;;;7.85;3.05;;;;;;;;;;5131123;27;20104;-73
2023/08/24 06:52:10;;;;;;;6.40;2.72;;;;;;;;;;5130907;27;20040;-72
2023/08/24 06:54:36;;;;;;;8.15;3.08;;;;;;;;;;5130583;27;20511;-72
2023/08/24 06:57:03;;;;;;;7.00;2.80;;;;;;;;;;5131232;27;20498;-73
2023/08/24 06:59:30;;;;;;;5.35;2.90;;;;;;;;;;5131038;27;20546;-73
2023/08/24 07:01:57;;;;;;;8.18;2.90;;;;;;;;;;5131146;27;20138;-72
2023/08/24 07:04:25;;;;;;;5.20;3.33;;;;;;;;;;5130868;27;20043;-72
2023/08/24 07:06:53;;;;;;;4.15;2.67;;;;;;;;;;5130981;27;20043;-72
2023/08/24 07:09:20;;;;;;;4.55;2.65;;;;;;;;;;5130437;27;20047;-72
2023/08/24 07:11:48;;;;;;;5.03;2.65;;;;;;;;;;5130341;27;20043;-73
2023/08/24 07:14:15;;;;;;;8.52;2.63;;;;;;;;;;5130663;27;20047;-73
2023/08/24 07:16:42;;;;;;;4.53;2.85;;;;;;;;;;5130607;27;20554;-73
2023/08/24 07:19:09;;;;;;;7.93;2.75;;;;;;;;;;5131110;27;20122;-73
2023/08/24 07:21:36;;;;;;;5.93;2.85;;;;;;;;;;5130531;27;20518;-73
2023/08/24 07:24:03;;;;;;;4.05;2.75;;;;;;;;;;5130116;27;20054;-72
2023/08/24 07:26:30;;;;;;;4.97;2.78;;;;;;;;;;5130624;27;20050;-73
2023/08/24 07:28:57;;;;;;;5.57;2.75;;;;;;;;;;5130131;27;20054;-72
2023/08/24 07:31:24;;;;;;;5.65;2.80;;;;;;;;;;5130393;27;20039;-73
2023/08/24 07:33:51;;;;;;;6.22;2.80;;;;;;;;;;5130312;27;20115;-73
2023/08/24 07:36:18;;;;;;;4.72;2.65;;;;;;;;;;5130762;27;20055;-73
2023/08/24 07:38:47;;;;;;;4.63;2.63;;;;;;;;;;5129819;27;20092;-73
2023/08/24 07:41:13;;;;;;;5.78;2.67;;;;;;;;;;5130353;27;20122;-73
2023/08/24 07:43:40;;;;;;;6.10;2.70;;;;;;;;;;5130231;27;20062;-73
2023/08/24 07:46:07;;;;;;;4.57;2.60;;;;;;;;;;5130079;27;20047;-73
2023/08/24 07:48:35;;;;;;;5.25;2.92;;;;;;;;;;5130173;27;20051;-73
2023/08/24 07:51:02;;;;;;;6.28;2.72;;;;;;;;;;5130466;27;20046;-72
2023/08/24 07:53:29;;;;;;;5.43;2.90;;;;;;;;;;5129751;27;20042;-72
2023/08/24 07:55:57;;;;;;;7.15;2.72;;;;;;;;;;5130036;27;20200;-72
2023/08/24 07:58:24;;;;;;;4.20;2.63;;;;;;;;;;5129990;27;20046;-73
2023/08/24 08:00:51;;;;;;;5.65;2.40;;;;;;;;;;5130013;27;20047;-73
2023/08/24 08:03:19;;;;;;;9.85;2.70;;;;;;;;;;5129436;27;20542;-73
2023/08/24 08:05:47;;;;;;;6.13;2.65;;;;;;;;;;5129856;27;20053;-73
2023/08/24 08:08:14;;;;;;;6.28;2.47;;;;;;;;;;5129618;27;20547;-72
2023/08/24 08:10:41;;;;;;;9.40;2.78;;;;;;;;;;5129642;27;20047;-72
2023/08/24 08:13:11;;;;;;;3.53;2.38;;;;;;;;;;5129963;27;20078;-73
2023/08/24 08:15:41;;;;;;;4.57;2.27;;;;;;;;;;5129536;27;20157;-72
2023/08/24 08:18:07;;;;;;;5.60;2.30;;;;;;;;;;5129870;27;20315;-73
2023/08/24 08:20:34;;;;;;;4.70;2.60;;;;;;;;;;5129602;27;20039;-73
2023/08/24 08:23:01;;;;;;;4.18;2.13;;;;;;;;;;5129960;27;20043;-72
2023/08/24 08:25:28;;;;;;;6.35;2.60;;;;;;;;;;5134051;27;20047;-72
2023/08/24 08:27:55;;;;;;;6.15;2.63;;;;;;;;;;5134064;27;20455;-72
2023/08/24 08:30:21;;;;;;;5.75;2.40;;;;;;;;;;5134025;27;20438;-72
2023/08/24 08:32:50;;;;;;;4.57;2.30;;;;;;;;;;5133782;27;20074;-73
2023/08/24 08:35:22;;;;;;;3.93;2.33;;;;;;;;;;5133547;27;20043;-73
2023/08/24 08:37:50;;;;;;;4.90;2.30;;;;;;;;;;5133498;27;20296;-73
2023/08/24 08:40:17;;;;;;;4.82;2.15;;;;;;;;;;5133534;27;20181;-73
2023/08/24 08:42:44;;;;;;;8.30;2.55;;;;;;;;;;5133809;27;20087;-73
2023/08/24 08:45:11;;;;;;;3.30;1.98;;;;;;;;;;5133670;27;20075;-73
2023/08/24 08:47:41;;;;;;;4.97;2.03;;;;;;;;;;5134184;27;20043;-73
2023/08/24 08:50:09;;;;;;;7.03;2.30;;;;;;;;;;5133856;27;20054;-72
2023/08/24 08:52:36;;;;;;;4.72;2.17;;;;;;;;;;5133162;27;20047;-73
2023/08/24 08:55:06;;;;;;;3.83;1.90;;;;;;;;;;5133352;27;20043;-73
2023/08/24 08:57:33;;;;;;;4.68;2.28;;;;;;;;;;5133457;27;20057;-73
2023/08/24 09:00:00;;;;;;;6.03;2.50;;;;;;;;;;5133146;27;20050;-73
2023/08/24 09:02:29;;;;;;;3.30;2.20;;;;;;;;;;5133703;27;20122;-73
2023/08/24 09:04:56;;;;;;;3.50;2.20;;;;;;;;;;5132941;27;20500;-72
2023/08/24 09:07:23;;;;;;;3.22;2.10;;;;;;;;;;5133280;27;20125;-73
2023/08/24 09:09:50;;;;;;;5.65;2.20;;;;;;;;;;5133146;27;20054;-73
2023/08/24 09:12:17;;;;;;;5.75;2.33;;;;;;;;;;5132875;27;20429;-72
2023/08/24 09:14:43;;;;;;;3.60;2.25;;;;;;;;;;5132621;27;20047;-73
2023/08/24 09:17:10;;;;;;;4.93;2.47;;;;;;;;;;5133254;27;20054;-73
2023/08/24 09:19:38;;;;;;;5.80;2.30;;;;;;;;;;5131786;27;20055;-73
2023/08/24 09:22:07;;;;;;;7.57;2.28;;;;;;;;;;5133234;27;20047;-73
2023/08/24 09:24:35;;;;;;;5.45;2.35;;;;;;;;;;5132904;27;20139;-73
2023/08/24 09:27:18;;;;;;;4.07;2.33;;;;;;;;;;5133168;27;20043;-72
2023/08/24 09:29:52;;;;;;;3.78;2.10;;;;;;;;;;5132471;27;20055;-73
2023/08/24 09:32:28;;;;;;;3.90;2.50;;;;;;;;;;5132394;27;20080;-73
2023/08/24 09:34:55;;;;;;;3.95;2.15;;;;;;;;;;5130965;27;20460;-72
2023/08/24 09:37:22;;;;;;;4.22;2.00;;;;;;;;;;5132402;27;20145;-73
2023/08/24 09:39:49;;;;;;;5.88;2.83;;;;;;;;;;5132488;27;20051;-73
2023/08/24 09:42:24;;;;;;;3.90;2.17;;;;;;;;;;5132505;27;20043;-73
2023/08/24 09:44:54;;;;;;;5.30;2.10;;;;;;;;;;5132513;27;20092;-73
2023/08/24 09:47:21;;;;;;;5.88;2.60;;;;;;;;;;5132446;27;20523;-73
2023/08/24 09:49:48;;;;;;;5.32;2.30;;;;;;;;;;5132330;27;20420;-73
2023/08/24 09:52:16;;;;;;;5.80;2.60;;;;;;;;;;5131791;27;20047;-73
2023/08/24 09:54:44;;;;;;;4.10;2.30;;;;;;;;;;5132439;27;20043;-73
2023/08/24 09:57:11;;;;;;;5.13;2.60;;;;;;;;;;5132605;27;20050;-73
2023/08/24 09:59:39;;;;;;;3.70;2.22;;;;;;;;;;5132518;27;20146;-73
2023/08/24 10:02:23;;;;;;;5.72;2.33;;;;;;;;;;5132092;27;20047;-73
2023/08/24 10:04:52;;;;;;;4.70;2.08;;;;;;;;;;5132209;27;20047;-73
2023/08/24 10:07:22;;;;;;;10.20;2.53;;;;;;;;;;5131608;27;20053;-73
2023/08/24 10:10:03;;;;;;;5.00;2.30;;;;;;;;;;5132114;27;20288;-73
2023/08/24 10:12:36;;;;;;;4.80;2.03;;;;;;;;;;5132491;27;20051;-73
2023/08/24 10:15:04;;;;;;;7.20;2.55;;;;;;;;;;5131930;27;20047;-73
2023/08/24 10:17:36;;;;;;;3.78;2.50;;;;;;;;;;5132118;27;20047;-73
2023/08/24 10:20:06;;;;;;;7.68;2.30;;;;;;;;;;5132106;27;20048;-73
2023/08/24 10:22:35;;;;;;;4.75;2.45;;;;;;;;;;5131414;27;20043;-73
2023/08/24 10:25:06;;;;;;;3.67;2.03;;;;;;;;;;5131895;27;20051;-73
2023/08/24 10:27:34;;;;;;;6.60;2.13;;;;;;;;;;5131467;27;20054;-73
2023/08/24 10:30:00;;;;;;;4.80;2.40;;;;;;;;;;5131536;27;20051;-73
2023/08/24 10:32:28;;;;;;;5.55;2.40;;;;;;;;;;5131430;27;20055;-73
2023/08/24 10:34:55;;;;;;;3.97;2.30;;;;;;;;;;5131305;27;20547;-73
2023/08/24 10:37:26;;;;;;;3.78;2.10;;;;;;;;;;5131431;27;20042;-73
2023/08/24 10:39:53;;;;;;;3.80;2.35;;;;;;;;;;5131403;27;20074;-73
2023/08/24 10:42:25;;;;;;;4.40;2.50;;;;;;;;;;5130990;27;20230;-73
2023/08/24 10:44:52;;;;;;;4.88;2.22;;;;;;;;;;5131194;27;20047;-73
2023/08/24 10:47:22;;;;;;;3.70;2.20;;;;;;;;;;5130297;27;20131;-73
2023/08/24 10:49:55;;;;;;;4.07;2.40;;;;;;;;;;5131782;27;20043;-73
2023/08/24 10:52:22;;;;;;;4.53;2.38;;;;;;;;;;5130568;27;20562;-73
2023/08/24 10:54:51;;;;;;;4.45;2.40;;;;;;;;;;5130830;27;20494;-74
2023/08/24 10:57:27;;;;;;;3.70;2.13;;;;;;;;;;5130861;27;20047;-73
2023/08/24 11:00:05;;;;;;;2.88;1.98;;;;;;;;;;5130948;27;20515;-73
2023/08/24 11:02:45;;;;;;;6.95;2.63;;;;;;;;;;5130908;27;20536;-73
2023/08/24 11:05:24;;;;;;;6.78;2.45;;;;;;;;;;5130633;27;20051;-73
2023/08/24 11:07:54;;;;;;;8.52;2.33;;;;;;;;;;5129349;27;20642;-73
2023/08/24 11:10:25;;;;;;;4.90;2.13;;;;;;;;;;5130886;27;20045;-72
2023/08/24 11:13:04;;;;;;;4.47;2.47;;;;;;;;;;5130822;27;20043;-73
2023/08/24 11:15:32;;;;;;;3.00;2.17;;;;;;;;;;5130874;27;20043;-73
2023/08/24 11:18:27;;;;;;;5.40;2.42;;;;;;;;;;5130423;27;20077;-73
2023/08/24 11:21:04;;;;;;;4.97;2.63;;;;;;;;;;5130463;27;20435;-73
2023/08/24 11:23:31;;;;;;;5.80;2.38;;;;;;;;;;5130136;27;20054;-73
2023/08/24 11:25:59;;;;;;;4.85;2.58;;;;;;;;;;5130567;27;20051;-73
2023/08/24 11:28:30;;;;;;;6.25;2.30;;;;;;;;;;5130564;27;20116;-73
2023/08/24 11:30:58;;;;;;;4.13;2.33;;;;;;;;;;5130457;27;20079;-72
2023/08/24 11:33:35;;;;;;;5.70;2.38;;;;;;;;;;5130270;27;20055;-73
2023/08/24 11:36:07;;;;;;;5.00;2.20;;;;;;;;;;5130221;27;20086;-72
2023/08/24 11:38:38;;;;;;;4.28;2.30;;;;;;;;;;5129897;27;20384;-73
2023/08/24 11:41:15;;;;;;;3.83;2.25;;;;;;;;;;5130406;27;20047;-73
2023/08/24 11:43:47;;;;;;;6.45;2.60;;;;;;;;;;5130206;27;20482;-73
2023/08/24 11:46:18;;;;;;;4.47;2.47;;;;;;;;;;5130074;27;20498;-73
2023/08/24 11:48:45;;;;;;;5.88;2.60;;;;;;;;;;5130288;27;20047;-72
2023/08/24 11:51:13;;;;;;;3.78;2.10;;;;;;;;;;5128788;27;20070;-73
2023/08/24 11:53:44;;;;;;;5.57;2.42;;;;;;;;;;5129612;27;20643;-73
2023/08/24 11:56:12;;;;;;;4.10;2.25;;;;;;;;;;5130065;27;20054;-73
2023/08/24 11:58:40;;;;;;;4.35;2.30;;;;;;;;;;5130124;27;20073;-73
2023/08/24 12:01:08;;;;;;;5.53;2.30;;;;;;;;;;5130233;27;20053;-73
2023/08/24 12:03:36;;;;;;;4.72;2.13;;;;;;;;;;5129774;27;20721;-73
2023/08/24 12:06:11;;;;;;;4.30;2.20;;;;;;;;;;5129848;27;20538;-73
2023/08/24 12:08:45;;;;;;;4.55;2.25;;;;;;;;;;5129328;27;20415;-73
2023/08/24 12:11:18;;;;;;;4.20;2.30;;;;;;;;;;5130061;27;20047;-73
2023/08/24 12:13:52;;;;;;;4.63;2.13;;;;;;;;;;5129777;27;20040;-73
2023/08/24 12:16:20;;;;;;;3.55;2.17;;;;;;;;;;5129546;27;20526;-72
2023/08/24 12:19:02;;;;;;;4.95;2.25;;;;;;;;;;5129901;27;20092;-73
2023/08/24 12:21:30;;;;;;;3.97;2.30;;;;;;;;;;5129732;27;20451;-73
2023/08/24 12:23:59;;;;;;;4.05;2.10;;;;;;;;;;5129085;27;20544;-73
2023/08/24 12:26:27;;;;;;;5.20;2.50;;;;;;;;;;5129913;27;20130;-74
2023/08/24 12:29:00;;;;;;;5.10;2.40;;;;;;;;;;5129558;27;20050;-73
2023/08/24 12:31:28;;;;;;;3.00;2.10;;;;;;;;;;5129703;27;20040;-74
2023/08/24 12:34:00;;;;;;;3.58;2.35;;;;;;;;;;5129364;27;20048;-74
2023/08/24 12:36:27;;;;;;;4.03;2.22;;;;;;;;;;5129744;27;20062;-73
2023/08/24 12:38:54;;;;;;;4.35;2.15;;;;;;;;;;5129613;27;20058;-73
2023/08/24 12:41:22;;;;;;;3.63;2.17;;;;;;;;;;5129728;27;20039;-72
2023/08/24 12:43:50;;;;;;;5.50;2.25;;;;;;;;;;5129264;27;20045;-74
2023/08/24 12:46:17;;;;;;;7.13;2.63;;;;;;;;;;5129433;27;20062;-74
2023/08/24 12:48:44;;;;;;;3.40;2.03;;;;;;;;;;5129415;27;20049;-73
2023/08/24 12:51:11;;;;;;;6.60;2.47;;;;;;;;;;5129538;27;20047;-74
2023/08/24 12:53:38;;;;;;;4.53;2.15;;;;;;;;;;5128602;27;20051;-73
2023/08/24 12:56:05;;;;;;;3.35;2.08;;;;;;;;;;5129511;28;20051;-73
2023/08/24 12:58:31;;;;;;;6.03;2.40;;;;;;;;;;5129381;27;20055;-73
2023/08/24 13:00:59;;;;;;;6.60;2.33;;;;;;;;;;5129254;27;20086;-73
2023/08/24 13:03:25;;;;;;;3.70;2.22;;;;;;;;;;5128942;28;20193;-73
2023/08/24 13:05:52;;;;;;;6.90;2.30;;;;;;;;;;5128736;28;20474;-73
2023/08/24 13:08:19;;;;;;;6.90;2.50;;;;;;;;;;5128452;27;20535;-74
2023/08/24 13:10:47;;;;;;;3.78;2.25;;;;;;;;;;5132571;27;20532;-73
2023/08/24 13:13:15;;;;;;;6.78;2.42;;;;;;;;;;5132961;27;20054;-75
2023/08/24 13:15:44;;;;;;;4.40;2.13;;;;;;;;;;5132770;27;20107;-75
2023/08/24 13:18:11;;;;;;;3.97;2.00;;;;;;;;;;5132994;27;20043;-74
2023/08/24 13:20:37;;;;;;;7.80;2.15;;;;;;;;;;5132600;27;20083;-74
2023/08/24 13:23:04;;;;;;;6.68;2.03;;;;;;;;;;5130604;27;20130;-74
2023/08/24 13:25:31;;;;;;;3.95;2.28;;;;;;;;;;5131369;27;20043;-74
2023/08/24 13:27:58;;;;;;;4.88;2.30;;;;;;;;;;5132833;27;20047;-74
2023/08/24 13:30:25;;;;;;;6.43;2.22;;;;;;;;;;5132656;27;20044;-74
2023/08/24 13:32:52;;;;;;;5.03;2.40;;;;;;;;;;5132416;27;20542;-73
2023/08/24 13:35:19;;;;;;;5.55;2.38;;;;;;;;;;5132450;27;20050;-73
2023/08/24 13:37:45;;;;;;;4.30;2.10;;;;;;;;;;5131828;27;20434;-73
2023/08/24 13:40:12;;;;;;;5.20;2.15;;;;;;;;;;5131011;27;20053;-74
2023/08/24 13:42:39;;;;;;;3.55;1.95;;;;;;;;;;5132127;27;20067;-73
2023/08/24 13:45:06;;;;;;;4.15;2.10;;;;;;;;;;5132242;27;20514;-73
2023/08/24 13:47:33;;;;;;;5.63;2.10;;;;;;;;;;5131005;27;20039;-73
2023/08/24 13:49:59;;;;;;;5.00;2.10;;;;;;;;;;5132301;27;20070;-73
2023/08/24 13:52:26;;;;;;;3.20;2.00;;;;;;;;;;5131895;27;20126;-72
2023/08/24 13:54:53;;;;;;;2.90;2.08;;;;;;;;;;5132156;27;20048;-73
2023/08/24 13:57:36;;;;;;;7.18;2.25;;;;;;;;;;5131752;27;20227;-73
2023/08/24 14:00:04;;;;;;;3.63;2.03;;;;;;;;;;5132034;27;20054;-73
2023/08/24 14:02:31;;;;;;;3.70;2.15;;;;;;;;;;5131822;27;20043;-74
2023/08/24 14:04:58;;;;;;;4.88;2.28;;;;;;;;;;5131922;27;20047;-73
2023/08/24 14:07:24;;;;;;;6.60;2.10;;;;;;;;;;5131836;27;20047;-73
2023/08/24 14:09:52;;;;;;;6.45;2.38;;;;;;;;;;5131986;27;20046;-73
2023/08/24 14:12:31;;;;;;;3.83;1.95;;;;;;;;;;5131880;27;20428;-73
2023/08/24 14:14:58;;;;;;;3.92;2.13;;;;;;;;;;5131563;27;20051;-73
2023/08/24 14:17:24;;;;;;;4.35;2.17;;;;;;;;;;5131811;27;20073;-73
2023/08/24 14:20:04;;;;;;;6.40;2.20;;;;;;;;;;5131764;27;20043;-74
2023/08/24 14:22:30;;;;;;;6.18;2.13;;;;;;;;;;5130889;27;20066;-73
2023/08/24 14:24:57;;;;;;;4.05;2.22;;;;;;;;;;5130213;27;20047;-73
2023/08/24 14:27:24;;;;;;;3.28;1.90;;;;;;;;;;5131998;27;20111;-73
2023/08/24 14:29:51;;;;;;;6.18;2.17;;;;;;;;;;5131451;27;20046;-75
2023/08/24 14:32:18;;;;;;;4.55;2.17;;;;;;;;;;5130675;27;20050;-74
2023/08/24 14:34:45;;;;;;;3.45;2.08;;;;;;;;;;5131034;27;20671;-73
2023/08/24 14:37:11;;;;;;;5.00;2.15;;;;;;;;;;5130945;27;20050;-74
2023/08/24 14:39:38;;;;;;;4.00;1.70;;;;;;;;;;5131280;27;20192;-74
2023/08/24 14:42:07;;;;;;;4.13;1.95;;;;;;;;;;5131363;27;20043;-75
2023/08/24 14:44:35;;;;;;;3.42;2.05;;;;;;;;;;5131338;27;20115;-73
2023/08/24 14:47:01;;;;;;;6.85;2.10;;;;;;;;;;5131464;27;20047;-73
2023/08/24 14:49:28;;;;;;;5.97;2.25;;;;;;;;;;5130825;27;20078;-73
2023/08/24 14:51:55;;;;;;;4.68;1.95;;;;;;;;;;5130942;27;20045;-73